Time;durP1;ratioP1;P1;durP2;ratioP2;P2;SDS_P1;SDS_P2;PMS_P1;PMS_P2;Temp;Humidity;BMP_temperature;BMP_pressure;BME280_temperature;BME280_humidity;BME280_pressure;Samples;Min_cycle;Max_cycle;Signal;HPM_P1;HPM_P2
2021/12/17 00:05:44;;;;;;;0.35;0.35;;;21.70;48.30;;;;;;5017243;28;43497;-63
2021/12/17 00:08:12;;;;;;;0.50;0.50;;;21.70;48.30;;;;;;5023614;28;43570;-63
2021/12/17 00:10:41;;;;;;;0.40;0.40;;;21.70;48.30;;;;;;5048292;28;43549;-62
2021/12/17 00:13:10;;;;;;;0.40;0.40;;;21.70;48.40;;;;;;5054721;28;44904;-62
2021/12/17 00:15:39;;;;;;;0.20;0.20;;;21.70;48.40;;;;;;5065089;28;43739;-62
2021/12/17 00:18:15;;;;;;;0.52;0.50;;;21.70;48.40;;;;;;5070209;28;43410;-63
2021/12/17 00:40:09;;;;;;;0.98;0.40;;;21.70;48.40;;;;;;5066737;28;43601;-62
2021/12/17 00:40:32;;;;;;;0.30;0.30;;;21.60;48.40;;;;;;5066305;28;43466;-62
2021/12/17 00:48:36;;;;;;;0.30;0.30;;;21.60;48.50;;;;;;5067625;28;44013;-63
2021/12/17 00:53:41;;;;;;;0.45;0.40;;;21.50;48.50;;;;;;5054424;28;43511;-62
2021/12/17 00:56:09;;;;;;;0.30;0.30;;;21.50;48.50;;;;;;5058079;28;44487;-62
2021/12/17 00:58:36;;;;;;;0.20;0.20;;;21.50;48.50;;;;;;5057881;28;43955;-62
2021/12/17 01:01:06;;;;;;;0.40;0.40;;;21.50;48.50;;;;;;5039623;28;43447;-63
2021/12/17 01:03:34;;;;;;;0.65;0.28;;;21.50;48.40;;;;;;5074864;28;43616;-62
2021/12/17 01:06:03;;;;;;;0.30;0.30;;;21.50;48.50;;;;;;5033112;28;43774;-62
2021/12/17 01:08:31;;;;;;;0.28;0.28;;;21.50;48.50;;;;;;5026080;28;43567;-62
2021/12/17 01:10:59;;;;;;;0.20;0.20;;;21.50;48.50;;;;;;5015844;28;43473;-62
2021/12/17 01:13:31;;;;;;;0.22;0.22;;;21.50;48.50;;;;;;5033925;28;43535;-63
2021/12/17 01:16:09;;;;;;;0.20;0.20;;;21.50;48.50;;;;;;5020942;28;44106;-62
2021/12/17 01:19:17;;;;;;;0.20;0.20;;;21.50;48.50;;;;;;5013660;28;43955;-63
2021/12/17 01:36:03;;;;;;;0.28;0.28;;;21.40;48.60;;;;;;5021893;28;43511;-62
2021/12/17 01:43:47;;;;;;;0.20;0.20;;;21.40;48.60;;;;;;5019942;28;43430;-62
2021/12/17 01:46:22;;;;;;;0.10;0.10;;;21.30;48.60;;;;;;5022241;28;43527;-63
2021/12/17 01:59:52;;;;;;;0.30;0.30;;;21.30;48.60;;;;;;5020504;28;44344;-63
2021/12/17 02:02:20;;;;;;;0.20;0.20;;;21.30;48.60;;;;;;5014064;28;44657;-62
2021/12/17 02:04:48;;;;;;;0.10;0.10;;;21.30;48.60;;;;;;5029189;28;43451;-62
2021/12/17 02:07:15;;;;;;;0.20;0.20;;;21.30;48.60;;;;;;5049440;28;43416;-62
2021/12/17 02:32:01;;;;;;;0.10;0.10;;;21.20;48.70;;;;;;5044717;28;43813;-62
2021/12/17 02:37:27;;;;;;;0.20;0.20;;;21.20;48.70;;;;;;5046262;28;43348;-62
2021/12/17 02:45:38;;;;;;;0.20;0.20;;;21.10;48.70;;;;;;5018545;28;43484;-62
2021/12/17 02:48:13;;;;;;;0.20;0.20;;;21.10;48.70;;;;;;5049092;28;43452;-62
2021/12/17 02:50:43;;;;;;;0.17;0.17;;;21.10;48.70;;;;;;5041618;28;43597;-63
2021/12/17 02:53:12;;;;;;;0.20;0.20;;;21.10;48.70;;;;;;5048378;28;44614;-62
2021/12/17 02:55:44;;;;;;;0.20;0.20;;;21.10;48.70;;;;;;5073917;28;43961;-62
2021/12/17 02:58:12;;;;;;;0.13;0.13;;;21.10;48.70;;;;;;5042773;28;43504;-62
2021/12/17 03:00:43;;;;;;;0.30;0.30;;;21.10;48.70;;;;;;5065679;28;43564;-63
2021/12/17 03:03:12;;;;;;;0.20;0.20;;;21.10;48.70;;;;;;5043160;28;43791;-62
2021/12/17 03:05:42;;;;;;;0.13;0.13;;;21.10;48.70;;;;;;5037215;28;43525;-62
2021/12/17 03:08:15;;;;;;;0.10;0.10;;;21.10;48.70;;;;;;5066344;28;43375;-62
2021/12/17 03:10:47;;;;;;;0.20;0.20;;;21.10;48.70;;;;;;5046128;28;44195;-62
2021/12/17 03:13:17;;;;;;;0.22;0.22;;;21.10;48.70;;;;;;5066513;28;44941;-63
2021/12/17 03:15:53;;;;;;;0.17;0.17;;;21.10;48.70;;;;;;5034460;28;43663;-62
2021/12/17 03:23:53;;;;;;;0.20;0.20;;;21.10;48.70;;;;;;5041277;28;43775;-63
2021/12/17 03:26:27;;;;;;;0.20;0.20;;;21.10;48.80;;;;;;5051416;28;43532;-62
2021/12/17 03:29:02;;;;;;;0.20;0.20;;;21.00;48.70;;;;;;5047640;28;43461;-62
2021/12/17 03:31:30;;;;;;;0.22;0.22;;;21.00;49.30;;;;;;5068920;28;43605;-62
2021/12/17 03:34:16;;;;;;;0.20;0.20;;;21.10;48.70;;;;;;5043449;28;43888;-62
2021/12/17 03:36:53;;;;;;;0.20;0.20;;;21.00;48.70;;;;;;5052530;28;43464;-62
2021/12/17 03:39:24;;;;;;;0.82;0.30;;;21.00;48.70;;;;;;5047687;28;43423;-63
2021/12/17 03:41:53;;;;;;;0.30;0.30;;;21.00;48.70;;;;;;5065041;28;43514;-62
2021/12/17 03:44:29;;;;;;;0.20;0.20;;;21.00;48.80;;;;;;5043574;28;43872;-62
2021/12/17 03:47:01;;;;;;;0.70;0.20;;;21.00;48.80;;;;;;5062207;28;44026;-62
2021/12/17 03:49:37;;;;;;;0.25;0.25;;;21.00;48.80;;;;;;5048646;28;43433;-62
2021/12/17 03:52:07;;;;;;;0.30;0.25;;;21.00;48.80;;;;;;5043617;28;43417;-62
2021/12/17 03:54:38;;;;;;;0.25;0.25;;;21.00;48.80;;;;;;5022922;28;44117;-62
2021/12/17 03:57:10;;;;;;;0.20;0.20;;;20.90;48.70;;;;;;5041478;28;43506;-62
2021/12/17 03:59:42;;;;;;;0.85;0.20;;;20.90;48.80;;;;;;5039697;28;43547;-62
2021/12/17 04:02:12;;;;;;;0.20;0.20;;;20.90;48.80;;;;;;5049012;28;43681;-62
2021/12/17 04:04:40;;;;;;;0.32;0.32;;;20.90;48.80;;;;;;5047776;28;44000;-62
2021/12/17 04:07:37;;;;;;;0.30;0.30;;;21.00;48.90;;;;;;5057937;28;44033;-62
2021/12/17 04:10:11;;;;;;;0.15;0.15;;;20.90;48.80;;;;;;5052864;28;43480;-62
2021/12/17 04:15:38;;;;;;;0.40;0.40;;;20.90;48.80;;;;;;5040080;28;44062;-62
2021/12/17 04:18:07;;;;;;;0.30;0.30;;;20.90;48.80;;;;;;5038183;28;43513;-62
2021/12/17 04:20:37;;;;;;;0.40;0.40;;;20.90;48.80;;;;;;5061844;28;43486;-63
2021/12/17 04:23:06;;;;;;;0.40;0.40;;;20.90;48.90;;;;;;5047404;28;43505;-62
2021/12/17 04:25:33;;;;;;;0.25;0.25;;;20.90;48.90;;;;;;5050575;28;43984;-62
2021/12/17 04:28:03;;;;;;;0.40;0.40;;;20.80;48.80;;;;;;5054231;28;43969;-62
2021/12/17 04:30:32;;;;;;;0.40;0.40;;;20.90;48.90;;;;;;5037542;28;43447;-62
2021/12/17 04:33:00;;;;;;;0.50;0.50;;;20.90;48.80;;;;;;5044137;28;43484;-62
2021/12/17 04:35:29;;;;;;;0.63;0.60;;;20.80;48.70;;;;;;5047432;28;43836;-62
2021/12/17 04:38:04;;;;;;;0.57;0.57;;;20.90;48.80;;;;;;5053081;28;43520;-62
2021/12/17 04:40:32;;;;;;;0.60;0.60;;;20.80;48.70;;;;;;5037732;28;43513;-62
2021/12/17 04:43:12;;;;;;;0.50;0.50;;;20.90;48.80;;;;;;5042566;28;43493;-62
2021/12/17 04:45:52;;;;;;;0.55;0.55;;;20.80;48.80;;;;;;5051110;28;44007;-63
2021/12/17 04:59:31;;;;;;;0.60;0.60;;;20.80;48.90;;;;;;5039093;28;44176;-62
2021/12/17 05:02:02;;;;;;;0.60;0.60;;;20.80;48.80;;;;;;5067979;28;43379;-62
2021/12/17 05:04:41;;;;;;;0.88;0.60;;;20.80;48.90;;;;;;5052868;28;43473;-63
2021/12/17 05:07:12;;;;;;;0.60;0.60;;;20.80;48.90;;;;;;5054909;28;43695;-62
2021/12/17 05:10:00;;;;;;;0.70;0.70;;;20.70;48.90;;;;;;5044417;28;43519;-62
2021/12/17 05:21:01;;;;;;;0.85;0.85;;;20.70;48.90;;;;;;5050358;28;43466;-63
2021/12/17 05:23:39;;;;;;;1.80;0.82;;;20.70;48.90;;;;;;5054650;28;43426;-62
2021/12/17 05:26:15;;;;;;;1.33;0.88;;;20.70;49.00;;;;;;5043741;28;43401;-62
2021/12/17 05:28:53;;;;;;;1.00;0.90;;;20.70;48.90;;;;;;5037889;28;44063;-63
2021/12/17 05:31:25;;;;;;;0.77;0.77;;;20.70;48.90;;;;;;5028542;28;44269;-62
2021/12/17 05:33:56;;;;;;;0.90;0.90;;;20.60;48.90;;;;;;5042952;28;43480;-62
2021/12/17 05:36:31;;;;;;;1.00;1.00;;;20.70;48.90;;;;;;5052917;28;43544;-62
2021/12/17 05:39:19;;;;;;;0.90;0.90;;;20.70;48.90;;;;;;5067106;28;44030;-62
2021/12/17 05:41:46;;;;;;;0.80;0.80;;;20.70;48.90;;;;;;5045573;28;43930;-62
2021/12/17 05:44:33;;;;;;;0.90;0.90;;;20.70;48.90;;;;;;5071883;28;43418;-62
2021/12/17 05:47:02;;;;;;;1.10;1.10;;;20.70;48.80;;;;;;5048521;28;43582;-62
2021/12/17 05:49:30;;;;;;;1.10;1.00;;;20.60;48.70;;;;;;5052025;28;44618;-62
2021/12/17 05:52:00;;;;;;;;;;;20.60;48.80;;;;;;5053159;28;43518;-62
2021/12/17 05:54:30;;;;;;;1.00;1.00;;;20.60;48.80;;;;;;5050141;28;43499;-62
2021/12/17 05:56:58;;;;;;;0.80;0.80;;;20.60;48.80;;;;;;5055358;28;43505;-62
2021/12/17 05:59:34;;;;;;;0.85;0.85;;;20.60;48.80;;;;;;5046458;28;44024;-62
2021/12/17 06:02:08;;;;;;;1.00;1.00;;;20.60;48.80;;;;;;5053832;28;43459;-62
2021/12/17 06:04:38;;;;;;;1.02;1.00;;;20.60;48.80;;;;;;5050110;28;43658;-63
2021/12/17 06:07:06;;;;;;;0.90;0.90;;;20.60;48.80;;;;;;5068364;28;43543;-62
2021/12/17 06:09:37;;;;;;;1.42;1.33;;;20.60;48.80;;;;;;5044518;28;44660;-62
2021/12/17 06:12:10;;;;;;;1.08;1.05;;;20.60;48.70;;;;;;5050239;28;43430;-63
2021/12/17 06:14:38;;;;;;;1.20;1.10;;;20.60;48.80;;;;;;5063091;28;43516;-62
2021/12/17 06:17:06;;;;;;;1.00;1.00;;;20.60;48.70;;;;;;5066115;28;43442;-62
2021/12/17 06:19:39;;;;;;;1.40;1.30;;;20.60;48.70;;;;;;5069594;28;44784;-62
2021/12/17 06:22:07;;;;;;;1.10;1.10;;;20.60;48.70;;;;;;5053922;28;43475;-62
2021/12/17 06:24:37;;;;;;;1.30;1.20;;;20.60;48.70;;;;;;5040681;28;43478;-62
2021/12/17 06:27:04;;;;;;;1.00;1.00;;;20.60;48.70;;;;;;5064051;28;43464;-62
2021/12/17 06:29:32;;;;;;;1.05;1.05;;;20.60;48.80;;;;;;5044319;28;44715;-63
2021/12/17 06:32:09;;;;;;;1.10;1.10;;;20.60;48.70;;;;;;5037910;28;43389;-62
2021/12/17 06:34:37;;;;;;;1.10;1.10;;;20.60;48.70;;;;;;5061384;28;43566;-63
2021/12/17 06:37:08;;;;;;;1.20;0.88;;;20.60;48.70;;;;;;5049264;28;43407;-63
2021/12/17 06:39:36;;;;;;;1.23;1.13;;;20.50;48.70;;;;;;5052758;28;44847;-63
2021/12/17 06:42:04;;;;;;;1.42;1.33;;;20.60;48.80;;;;;;5054465;28;43449;-63
2021/12/17 06:44:32;;;;;;;1.10;1.10;;;20.50;48.70;;;;;;5046471;28;43397;-62
2021/12/17 06:47:28;;;;;;;1.15;1.13;;;20.50;48.70;;;;;;5044797;28;43583;-63
2021/12/17 07:10:36;;;;;;;1.70;1.20;;;20.40;48.80;;;;;;5040186;28;43513;-62
2021/12/17 07:24:37;;;;;;;1.20;1.20;;;20.40;48.80;;;;;;5036647;28;43809;-63
2021/12/17 07:31:22;;;;;;;1.30;1.20;;;20.40;48.90;;;;;;5037882;28;44008;-62
2021/12/17 07:32:50;;;;;;;1.38;1.27;;;20.40;48.80;;;;;;5064929;28;43532;-61
2021/12/17 07:35:38;;;;;;;1.85;1.20;;;20.40;48.90;;;;;;5049184;28;44708;-63
2021/12/17 07:40:53;;;;;;;1.42;1.30;;;20.40;49.00;;;;;;5045213;28;43529;-62
2021/12/17 07:43:27;;;;;;;1.02;1.02;;;20.30;48.90;;;;;;5050792;28;43473;-62
2021/12/17 07:45:57;;;;;;;1.33;1.23;;;20.30;48.90;;;;;;5045712;28;44075;-62
2021/12/17 07:48:27;;;;;;;1.02;1.02;;;20.30;48.80;;;;;;5052186;28;43957;-63
2021/12/17 07:51:06;;;;;;;1.17;1.10;;;20.30;48.80;;;;;;5041007;28;43406;-62
2021/12/17 07:54:13;;;;;;;1.30;1.20;;;20.30;48.90;;;;;;5044258;28;43643;-63
2021/12/17 07:56:41;;;;;;;1.17;1.17;;;20.30;48.90;;;;;;5060904;28;43854;-62
2021/12/17 07:59:17;;;;;;;1.77;1.30;;;20.30;48.90;;;;;;5041697;28;43873;-62
2021/12/17 08:01:46;;;;;;;1.40;1.30;;;20.30;48.90;;;;;;5046430;28;43405;-62
2021/12/17 08:04:15;;;;;;;1.20;1.13;;;20.30;48.90;;;;;;5036637;28;43512;-62
2021/12/17 08:06:55;;;;;;;1.50;1.40;;;20.30;48.80;;;;;;5050530;28;43981;-62
2021/12/17 08:09:30;;;;;;;1.50;1.40;;;20.30;48.90;;;;;;5043508;28;44127;-62
2021/12/17 08:11:58;;;;;;;1.20;1.10;;;20.20;48.90;;;;;;5050170;28;43470;-62
2021/12/17 08:14:32;;;;;;;1.45;1.35;;;20.30;49.10;;;;;;5041720;28;43638;-62
2021/12/17 08:25:12;;;;;;;1.52;1.20;;;20.30;49.00;;;;;;5034245;28;43690;-63
2021/12/17 08:28:03;;;;;;;1.50;1.40;;;20.30;49.50;;;;;;5052807;28;43818;-62
2021/12/17 08:30:38;;;;;;;1.40;1.27;;;20.30;49.00;;;;;;5035520;28;44020;-62
2021/12/17 08:33:13;;;;;;;1.20;1.10;;;20.30;49.00;;;;;;5035564;28;43439;-62
2021/12/17 08:35:41;;;;;;;1.38;1.27;;;20.30;49.00;;;;;;5073871;27;43473;-62
2021/12/17 08:38:19;;;;;;;1.85;1.30;;;20.30;49.00;;;;;;5051151;28;44700;-62
2021/12/17 08:40:49;;;;;;;1.50;1.40;;;20.40;49.10;;;;;;5065032;28;43410;-62
2021/12/17 08:43:17;;;;;;;1.50;1.40;;;20.40;49.10;;;;;;5050727;28;43487;-63
2021/12/17 08:45:49;;;;;;;1.02;1.02;;;20.40;49.00;;;;;;5056460;28;43546;-63
2021/12/17 08:48:41;;;;;;;1.10;1.00;;;20.40;49.10;;;;;;5051253;28;44706;-62
2021/12/17 08:51:26;;;;;;;1.17;1.10;;;20.40;49.10;;;;;;5036064;28;43492;-62
2021/12/17 08:53:54;;;;;;;1.17;1.08;;;20.40;49.00;;;;;;5063324;28;43540;-62
2021/12/17 08:56:31;;;;;;;1.27;1.17;;;20.40;49.10;;;;;;5053517;28;43504;-62
2021/12/17 08:59:05;;;;;;;1.20;1.10;;;20.40;49.00;;;;;;5053814;28;43871;-62
2021/12/17 09:01:43;;;;;;;1.05;1.05;;;20.40;49.00;;;;;;5056108;28;43541;-62
2021/12/17 09:04:10;;;;;;;1.88;1.00;;;20.40;49.00;;;;;;5041617;28;43478;-63
2021/12/17 09:06:43;;;;;;;1.10;1.00;;;20.50;49.00;;;;;;5067560;28;43498;-62
2021/12/17 09:09:17;;;;;;;0.90;0.90;;;20.40;49.00;;;;;;5057744;28;44119;-62
2021/12/17 09:11:47;;;;;;;0.85;0.85;;;20.50;49.00;;;;;;5032713;28;44083;-63
2021/12/17 09:14:37;;;;;;;0.80;0.60;;;20.50;49.00;;;;;;5049326;28;43483;-63
2021/12/17 09:17:24;;;;;;;0.73;0.73;;;20.50;49.00;;;;;;5049254;28;44123;-62
2021/12/17 09:19:53;;;;;;;0.85;0.73;;;20.50;49.00;;;;;;5054808;28;44050;-62
2021/12/17 09:22:23;;;;;;;0.70;0.70;;;20.50;49.00;;;;;;5053197;28;43447;-62
2021/12/17 09:24:53;;;;;;;;;;;20.50;49.00;;;;;;5052313;28;43460;-62
2021/12/17 09:27:21;;;;;;;1.23;0.70;;;20.60;49.00;;;;;;5055914;28;43628;-62
2021/12/17 09:30:19;;;;;;;1.02;0.73;;;20.60;49.00;;;;;;5051605;28;43877;-61
2021/12/17 09:32:47;;;;;;;0.60;0.60;;;20.50;49.00;;;;;;5064728;28;43439;-62
2021/12/17 09:35:15;;;;;;;0.88;0.77;;;20.50;48.90;;;;;;5052482;28;43450;-62
2021/12/17 09:37:42;;;;;;;0.43;0.43;;;20.60;49.10;;;;;;5066289;28;43495;-62
2021/12/17 09:40:11;;;;;;;0.45;0.45;;;20.60;49.00;;;;;;5064562;28;44411;-62
2021/12/17 09:42:42;;;;;;;0.47;0.47;;;20.60;49.10;;;;;;5074236;28;43477;-61
2021/12/17 09:45:12;;;;;;;0.60;0.60;;;20.60;49.00;;;;;;5065550;28;43478;-62
2021/12/17 09:47:41;;;;;;;0.70;0.60;;;20.60;49.00;;;;;;5061710;28;43510;-62
2021/12/17 09:50:11;;;;;;;0.50;0.50;;;20.60;49.00;;;;;;5068493;28;43771;-62
2021/12/17 09:52:38;;;;;;;0.60;0.60;;;20.70;48.90;;;;;;5052935;28;43441;-62
2021/12/17 09:55:07;;;;;;;0.60;0.60;;;20.60;48.90;;;;;;5062513;28;44075;-62
2021/12/17 09:57:37;;;;;;;0.40;0.40;;;20.70;49.00;;;;;;5064975;28;43589;-62
2021/12/17 10:00:14;;;;;;;1.13;0.60;;;20.70;48.90;;;;;;5061138;28;44980;-62
2021/12/17 10:02:46;;;;;;;0.40;0.40;;;20.70;49.00;;;;;;5061119;28;43473;-62
2021/12/17 10:05:30;;;;;;;0.40;0.40;;;20.70;49.00;;;;;;5058206;28;43420;-62
2021/12/17 10:08:01;;;;;;;0.40;0.40;;;20.80;48.90;;;;;;5069379;28;43451;-62
2021/12/17 10:10:46;;;;;;;1.60;0.70;;;20.80;48.90;;;;;;5071883;28;44080;-62
2021/12/17 10:13:13;;;;;;;1.65;0.60;;;20.80;48.90;;;;;;5055519;28;43511;-62
2021/12/17 10:15:47;;;;;;;0.50;0.50;;;20.80;48.90;;;;;;5047570;28;43468;-62
2021/12/17 10:18:15;;;;;;;0.77;0.63;;;20.80;48.90;;;;;;5059372;28;43586;-63
2021/12/17 10:20:52;;;;;;;0.73;0.50;;;20.80;48.80;;;;;;5060472;28;44672;-62
2021/12/17 10:23:21;;;;;;;0.40;0.40;;;20.90;49.00;;;;;;5056783;28;43445;-61
2021/12/17 10:25:49;;;;;;;0.30;0.30;;;20.90;48.80;;;;;;5059266;28;44018;-62
2021/12/17 10:28:17;;;;;;;0.68;0.50;;;20.90;48.90;;;;;;5071689;28;43464;-61
2021/12/17 10:30:47;;;;;;;0.40;0.40;;;20.90;48.80;;;;;;5046338;28;44200;-62
2021/12/17 10:33:19;;;;;;;0.40;0.40;;;20.90;48.70;;;;;;5064302;28;43491;-62
2021/12/17 10:35:52;;;;;;;0.40;0.40;;;21.00;48.90;;;;;;5071732;28;43502;-62
2021/12/17 10:38:25;;;;;;;0.20;0.20;;;21.00;48.80;;;;;;5066535;28;43522;-62
2021/12/17 10:41:13;;;;;;;0.80;0.60;;;21.00;48.80;;;;;;5066102;28;44008;-63
2021/12/17 10:43:50;;;;;;;0.40;0.40;;;21.00;48.70;;;;;;5066512;28;43428;-62
2021/12/17 10:46:29;;;;;;;0.32;0.32;;;21.10;48.80;;;;;;5060479;28;43462;-62
2021/12/17 10:49:20;;;;;;;0.40;0.40;;;21.10;48.80;;;;;;5050088;28;43600;-63
2021/12/17 10:51:55;;;;;;;0.30;0.30;;;21.10;48.70;;;;;;5058147;28;43989;-63
2021/12/17 10:54:22;;;;;;;0.52;0.40;;;21.10;48.80;;;;;;5063146;28;43973;-63
2021/12/17 10:56:53;;;;;;;0.50;0.30;;;21.10;48.80;;;;;;5057785;28;44049;-63
2021/12/17 10:59:22;;;;;;;;;;;21.10;48.80;;;;;;5063171;28;43453;-62
2021/12/17 11:01:55;;;;;;;0.73;0.40;;;21.10;48.90;;;;;;5053885;28;44966;-63
2021/12/17 11:04:26;;;;;;;0.52;0.40;;;21.10;49.00;;;;;;5069227;28;43429;-62
2021/12/17 11:06:55;;;;;;;1.13;0.60;;;21.20;48.90;;;;;;5072133;28;43474;-63
2021/12/17 11:09:57;;;;;;;0.88;0.40;;;21.10;49.00;;;;;;5059869;28;43470;-62
2021/12/17 11:12:34;;;;;;;0.28;0.28;;;21.20;48.90;;;;;;5058072;28;44220;-63
2021/12/17 11:15:12;;;;;;;0.45;0.30;;;21.20;48.90;;;;;;5047777;28;43542;-62
2021/12/17 11:17:43;;;;;;;0.60;0.32;;;21.20;49.00;;;;;;5057651;28;43444;-62
2021/12/17 11:20:27;;;;;;;1.17;0.50;;;21.30;49.00;;;;;;5066485;28;43560;-62
2021/12/17 11:23:02;;;;;;;0.68;0.40;;;21.30;49.00;;;;;;5028294;28;43990;-62
2021/12/17 11:25:31;;;;;;;0.50;0.50;;;21.30;49.70;;;;;;5045760;28;43418;-63
2021/12/17 11:27:59;;;;;;;0.20;0.20;;;21.30;49.10;;;;;;5045627;28;43466;-62
2021/12/17 11:30:29;;;;;;;0.65;0.43;;;21.30;49.20;;;;;;5045388;28;43695;-62
2021/12/17 11:33:04;;;;;;;1.60;0.38;;;21.30;49.10;;;;;;5064748;28;44077;-63
2021/12/17 11:35:35;;;;;;;0.40;0.40;;;21.40;49.10;;;;;;5048934;28;43910;-62
2021/12/17 11:38:14;;;;;;;0.98;0.47;;;21.40;49.10;;;;;;5064887;28;43392;-63
2021/12/17 11:40:52;;;;;;;0.40;0.40;;;21.40;49.10;;;;;;5043715;28;43577;-62
2021/12/17 11:43:40;;;;;;;0.85;0.55;;;21.50;49.20;;;;;;5060161;28;43921;-62
2021/12/17 11:46:15;;;;;;;1.25;0.45;;;21.50;49.20;;;;;;5063243;28;43400;-63
2021/12/17 11:49:10;;;;;;;0.55;0.50;;;21.50;49.10;;;;;;5037451;28;43516;-62
2021/12/17 11:51:37;;;;;;;1.13;0.57;;;21.50;49.20;;;;;;5065737;28;44000;-62
2021/12/17 11:54:10;;;;;;;0.80;0.40;;;21.50;49.10;;;;;;5066058;28;45277;-62
2021/12/17 11:56:47;;;;;;;0.50;0.50;;;21.50;49.00;;;;;;5058180;28;43474;-62
2021/12/17 11:59:35;;;;;;;0.45;0.40;;;21.50;49.00;;;;;;5058401;28;43407;-62
2021/12/17 12:02:22;;;;;;;0.35;0.35;;;21.60;49.00;;;;;;5061506;28;43499;-62
2021/12/17 12:04:57;;;;;;;0.47;0.47;;;21.60;49.10;;;;;;5059306;28;44942;-62
2021/12/17 12:07:24;;;;;;;0.77;0.40;;;21.60;49.30;;;;;;5065211;28;43669;-63
2021/12/17 12:09:57;;;;;;;0.40;0.40;;;21.60;49.20;;;;;;5071772;27;43501;-63
2021/12/17 12:12:45;;;;;;;0.47;0.47;;;21.60;49.10;;;;;;5055652;28;43640;-62
2021/12/17 12:15:24;;;;;;;2.17;0.57;;;21.60;49.10;;;;;;5047048;28;43802;-62
2021/12/17 12:18:03;;;;;;;0.30;0.30;;;21.60;49.10;;;;;;5071662;28;43978;-62
2021/12/17 12:20:46;;;;;;;0.75;0.50;;;21.70;49.10;;;;;;5064499;28;43538;-62
2021/12/17 12:23:29;;;;;;;0.40;0.40;;;21.70;49.20;;;;;;5063592;28;43542;-62
2021/12/17 12:26:08;;;;;;;0.20;0.20;;;21.70;49.20;;;;;;5070712;28;44769;-62
2021/12/17 12:28:45;;;;;;;0.73;0.35;;;21.70;49.10;;;;;;5050165;28;44095;-62
2021/12/17 12:31:32;;;;;;;0.40;0.40;;;21.70;49.10;;;;;;5073211;28;43445;-62
2021/12/17 12:34:06;;;;;;;0.55;0.40;;;21.80;49.20;;;;;;5068959;28;43442;-62
2021/12/17 12:36:58;;;;;;;0.40;0.40;;;21.80;49.20;;;;;;5066005;28;44969;-62
2021/12/17 12:40:01;;;;;;;0.40;0.40;;;21.70;49.10;;;;;;5072320;28;43469;-62
2021/12/17 12:42:31;;;;;;;0.50;0.45;;;21.80;49.20;;;;;;5056729;28;43534;-63
2021/12/17 12:44:59;;;;;;;0.73;0.35;;;21.80;49.20;;;;;;5070063;28;43504;-63
2021/12/17 12:47:26;;;;;;;0.43;0.43;;;21.80;49.30;;;;;;5066317;28;43800;-62
2021/12/17 12:49:59;;;;;;;0.30;0.30;;;21.80;49.20;;;;;;5062200;28;44184;-62
2021/12/17 12:52:41;;;;;;;0.60;0.40;;;21.80;49.30;;;;;;5051153;28;43580;-62
2021/12/17 12:55:14;;;;;;;0.80;0.45;;;21.90;49.40;;;;;;5053343;28;43646;-61
2021/12/17 12:57:58;;;;;;;0.63;0.40;;;21.80;49.30;;;;;;5054464;28;44698;-62
2021/12/17 13:00:54;;;;;;;0.77;0.40;;;21.90;49.30;;;;;;5047439;28;43631;-62
2021/12/17 13:03:33;;;;;;;0.31;0.31;;;21.90;49.30;;;;;;4973759;28;10000478;-62
2021/12/17 13:06:01;;;;;;;;;;;22.00;49.30;;;;;;4526137;28;10044916;-61
2021/12/17 13:08:31;;;;;;;0.60;0.55;;;22.00;49.30;;;;;;5052459;28;45752;-61
2021/12/17 13:11:02;;;;;;;0.45;0.38;;;22.00;49.20;;;;;;5058495;28;44149;-62
2021/12/17 13:13:58;;;;;;;0.55;0.20;;;22.10;49.20;;;;;;5052196;28;43664;-62
2021/12/17 13:21:48;;;;;;;0.30;0.30;;;22.10;49.20;;;;;;5048240;28;43558;-62
2021/12/17 13:24:23;;;;;;;0.40;0.35;;;22.10;49.20;;;;;;5051105;28;43587;-62
2021/12/17 13:26:53;;;;;;;0.47;0.40;;;22.10;49.20;;;;;;5053663;28;43538;-62
2021/12/17 13:29:33;;;;;;;0.30;0.30;;;22.20;49.20;;;;;;5057448;28;44710;-62
2021/12/17 13:32:09;;;;;;;0.50;0.35;;;22.20;49.10;;;;;;5056409;28;45317;-62
2021/12/17 13:34:56;;;;;;;0.25;0.25;;;22.20;49.10;;;;;;5061113;28;43602;-62
2021/12/17 13:37:30;;;;;;;0.55;0.50;;;22.20;49.10;;;;;;5058772;28;44128;-62
2021/12/17 13:40:07;;;;;;;0.65;0.57;;;22.30;49.10;;;;;;5060155;28;44962;-62
2021/12/17 13:42:38;;;;;;;0.50;0.28;;;22.30;49.10;;;;;;5047421;28;43593;-62
2021/12/17 13:45:13;;;;;;;0.50;0.50;;;22.30;49.00;;;;;;5049164;28;43534;-63
2021/12/17 13:47:45;;;;;;;1.10;0.30;;;22.40;49.00;;;;;;5049091;28;43632;-63
2021/12/17 13:50:27;;;;;;;0.30;0.30;;;22.40;49.00;;;;;;5046740;28;44985;-63
2021/12/17 13:53:00;;;;;;;0.47;0.40;;;22.40;48.90;;;;;;5049256;28;44195;-63
2021/12/17 13:55:37;;;;;;;0.40;0.40;;;22.40;48.90;;;;;;5044710;28;43612;-64
2021/12/17 13:58:14;;;;;;;0.63;0.30;;;22.50;48.90;;;;;;5047304;28;44117;-63
2021/12/17 14:00:52;;;;;;;0.47;0.40;;;22.50;48.80;;;;;;5051778;28;44692;-62
2021/12/17 14:03:26;;;;;;;0.55;0.40;;;22.50;48.80;;;;;;5042335;28;44832;-63
2021/12/17 14:06:11;;;;;;;0.32;0.32;;;22.60;48.80;;;;;;5012171;28;44950;-63
2021/12/17 14:08:40;;;;;;;0.40;0.40;;;22.60;48.80;;;;;;5008990;28;44128;-63
2021/12/17 14:11:30;;;;;;;0.68;0.47;;;22.60;48.80;;;;;;5008553;28;44910;-63
2021/12/17 14:14:25;;;;;;;0.40;0.40;;;22.60;48.70;;;;;;5008869;28;43710;-62
2021/12/17 14:17:02;;;;;;;0.30;0.30;;;22.70;48.70;;;;;;5006700;28;43575;-62
2021/12/17 14:19:46;;;;;;;0.22;0.22;;;22.70;48.70;;;;;;5009196;28;43558;-62
2021/12/17 14:22:28;;;;;;;0.47;0.40;;;22.70;48.60;;;;;;5012682;28;45354;-62
2021/12/17 14:24:57;;;;;;;0.30;0.30;;;22.70;48.70;;;;;;5004821;28;44065;-61
2021/12/17 14:27:45;;;;;;;0.55;0.32;;;22.70;48.70;;;;;;5005368;28;43572;-62
2021/12/17 14:30:13;;;;;;;0.50;0.50;;;22.70;48.80;;;;;;5005422;28;43551;-62
2021/12/17 14:32:45;;;;;;;0.38;0.30;;;22.70;48.70;;;;;;5005910;28;43799;-62
2021/12/17 14:35:13;;;;;;;0.90;0.63;;;22.70;48.60;;;;;;5007289;28;43566;-62
2021/12/17 14:37:54;;;;;;;0.85;0.57;;;22.80;48.70;;;;;;5010886;28;43697;-62
2021/12/17 14:40:52;;;;;;;1.38;0.60;;;22.80;48.60;;;;;;5005838;28;43598;-62
2021/12/17 14:43:37;;;;;;;1.13;0.60;;;22.80;48.60;;;;;;5007166;28;44848;-62
2021/12/17 14:49:08;;;;;;;1.30;0.50;;;22.80;48.50;;;;;;5010057;28;43614;-62
2021/12/17 15:00:52;;;;;;;0.52;0.35;;;22.90;48.40;;;;;;5005927;28;43629;-63
2021/12/17 15:06:03;;;;;;;0.60;0.45;;;22.90;48.50;;;;;;5036872;28;43999;-62
2021/12/17 15:08:30;;;;;;;1.05;0.80;;;22.90;48.50;;;;;;5049015;28;43773;-62
2021/12/17 15:11:03;;;;;;;0.60;0.60;;;23.00;49.10;;;;;;5049752;28;43528;-61
2021/12/17 15:13:31;;;;;;;0.40;0.40;;;23.00;48.50;;;;;;5035024;28;43614;-62
2021/12/17 15:16:00;;;;;;;0.93;0.60;;;23.00;48.50;;;;;;5050066;28;43800;-62
2021/12/17 15:18:27;;;;;;;1.15;0.60;;;23.00;48.50;;;;;;5051906;28;44173;-62
2021/12/17 15:20:58;;;;;;;2.13;0.70;;;23.00;48.50;;;;;;5051101;28;44817;-62
2021/12/17 15:23:26;;;;;;;0.82;0.60;;;23.10;48.40;;;;;;5052710;28;44223;-61
2021/12/17 15:25:54;;;;;;;1.50;0.70;;;23.10;48.30;;;;;;5048886;28;43864;-63
2021/12/17 15:28:24;;;;;;;1.15;0.52;;;23.10;48.30;;;;;;5055542;28;43723;-62
2021/12/17 15:30:56;;;;;;;3.83;0.93;;;23.10;48.30;;;;;;5054875;28;43631;-62
2021/12/17 15:33:23;;;;;;;0.63;0.50;;;23.10;48.30;;;;;;5050018;28;43582;-62
2021/12/17 15:35:51;;;;;;;0.80;0.50;;;23.20;49.00;;;;;;5051094;28;44752;-62
2021/12/17 15:38:19;;;;;;;0.55;0.50;;;23.20;48.20;;;;;;5048985;28;43686;-62
2021/12/17 15:40:47;;;;;;;0.70;0.60;;;23.20;48.20;;;;;;5051439;28;43511;-62
2021/12/17 15:43:17;;;;;;;0.80;0.60;;;23.20;48.10;;;;;;5048660;28;43668;-62
2021/12/17 15:45:47;;;;;;;2.40;0.65;;;23.20;48.10;;;;;;5057017;28;43744;-62
2021/12/17 15:48:17;;;;;;;0.60;0.60;;;23.30;48.00;;;;;;5056716;28;44509;-62
2021/12/17 15:51:06;;;;;;;0.55;0.50;;;23.30;48.00;;;;;;5048383;28;43616;-62
2021/12/17 15:53:34;;;;;;;0.50;0.50;;;23.30;47.90;;;;;;5052614;28;43651;-63
2021/12/17 15:56:04;;;;;;;1.10;0.60;;;23.30;47.90;;;;;;5046810;28;44791;-62
2021/12/17 15:58:31;;;;;;;1.08;0.40;;;23.30;47.90;;;;;;5046977;28;43626;-62
2021/12/17 16:00:59;;;;;;;0.90;0.70;;;23.30;47.80;;;;;;5053219;28;43911;-62
2021/12/17 16:03:31;;;;;;;0.95;0.80;;;23.30;47.90;;;;;;5048616;28;43531;-63
2021/12/17 16:06:02;;;;;;;0.65;0.47;;;23.30;47.80;;;;;;5017945;28;44033;-62
2021/12/17 16:08:35;;;;;;;1.05;0.50;;;23.40;47.80;;;;;;5026160;28;43626;-63
2021/12/17 16:11:38;;;;;;;1.10;0.70;;;23.40;47.80;;;;;;5025680;28;43920;-62
2021/12/17 16:22:07;;;;;;;0.93;0.60;;;23.30;47.80;;;;;;5016223;28;43806;-62
2021/12/17 16:24:34;;;;;;;1.40;0.50;;;23.40;47.70;;;;;;5025368;28;43601;-62
2021/12/17 16:27:03;;;;;;;0.47;0.30;;;23.40;47.70;;;;;;5022397;28;44950;-62
2021/12/17 16:29:30;;;;;;;0.52;0.50;;;23.40;48.10;;;;;;5025757;28;43791;-62
2021/12/17 16:31:57;;;;;;;0.57;0.57;;;23.30;47.80;;;;;;5021369;28;43711;-62
2021/12/17 16:34:25;;;;;;;1.10;0.50;;;23.40;47.80;;;;;;5027382;28;43815;-62
2021/12/17 16:36:53;;;;;;;1.33;0.50;;;23.30;47.70;;;;;;5027720;28;44136;-62